KBDE/BDE METAR and TAF weather

Enter ICAO airport designator
Station Type Date Time Source
KBDE METAR 2019/10/19 06:53 UTC NOAA

KBDE 190653Z AUTO 22005KT 10SM BKN080 11/07 A2942 RMK AO2 SLP967 T01060067


Station Type Date Time Source
KBDE Decoded METAR 2019/10/19 06:53 UTC NOAA

BAUDETTE INTERNATIONAL AIRPORT, MN, United States (KBDE) 48-44N 94-37W 329M
Oct 19, 2019 - 02:53 AM EDT / 2019.10.19 0653 UTC
Wind: from the SW (220 degrees) at 6 MPH (5 KT):0
Visibility: 10 mile(s):0
Sky conditions: mostly cloudy
Temperature: 51.1 F (10.6 C)
Dew Point: 44.1 F (6.7 C)
Relative Humidity: 76%
Pressure (altimeter): 29.42 in. Hg (996 hPa)
ob: KBDE 190653Z AUTO 22005KT 10SM BKN080 11/07 A2942 RMK AO2 SLP967 T01060067
cycle: 7

Station Type Date Time Source
KBDE TAF UTC NOAA

Error!

Example: see airport list